sensor_id;sensor_type;location;lat;lon;timestamp;pressure;altitude;pressure_sealevel;temperature;humidity
21431;BME280;10876;49.038;10.608;2022-07-09T08:02:58;99206.47;;;21.41;100.00
21431;BME280;10876;49.038;10.608;2022-07-09T08:08:28;99203.53;;;21.14;100.00
21431;BME280;10876;49.038;10.608;2022-07-09T08:10:55;99203.59;;;21.61;100.00
21431;BME280;10876;49.038;10.608;2022-07-09T08:13:22;99203.13;;;21.81;100.00
21431;BME280;10876;49.038;10.608;2022-07-09T08:15:48;99206.91;;;22.19;100.00
21431;BME280;10876;49.038;10.608;2022-07-09T08:18:17;99209.03;;;21.76;100.00
21431;BME280;10876;49.038;10.608;2022-07-09T08:20:43;99211.47;;;22.04;100.00
21431;BME280;10876;49.038;10.608;2022-07-09T08:23:10;99203.53;;;22.07;100.00
21431;BME280;10876;49.038;10.608;2022-07-09T08:25:38;99210.38;;;21.86;100.00
21431;BME280;10876;49.038;10.608;2022-07-09T08:28:05;99208.00;;;21.62;100.00
21431;BME280;10876;49.038;10.608;2022-07-09T08:30:32;99200.19;;;21.05;100.00
21431;BME280;10876;49.038;10.608;2022-07-09T08:33:00;99209.31;;;21.25;100.00
21431;BME280;10876;49.038;10.608;2022-07-09T08:35:28;99199.13;;;21.33;100.00
21431;BME280;10876;49.038;10.608;2022-07-09T08:37:55;99203.38;;;21.04;100.00
21431;BME280;10876;49.038;10.608;2022-07-09T08:40:24;99204.63;;;21.29;100.00
21431;BME280;10876;49.038;10.608;2022-07-09T08:42:53;99192.47;;;21.61;100.00
21431;BME280;10876;49.038;10.608;2022-07-09T08:45:21;99193.22;;;22.11;100.00
21431;BME280;10876;49.038;10.608;2022-07-09T08:47:52;99189.41;;;22.22;100.00
21431;BME280;10876;49.038;10.608;2022-07-09T08:50:23;99185.28;;;22.73;100.00
21431;BME280;10876;49.038;10.608;2022-07-09T08:52:54;99177.50;;;22.89;100.00
21431;BME280;10876;49.038;10.608;2022-07-09T08:55:21;99173.22;;;22.65;100.00
21431;BME280;10876;49.038;10.608;2022-07-09T08:57:55;99176.09;;;22.39;100.00
21431;BME280;10876;49.038;10.608;2022-07-09T09:00:25;99174.59;;;22.48;100.00
21431;BME280;10876;49.038;10.608;2022-07-09T09:03:02;99178.81;;;22.65;100.00
21431;BME280;10876;49.038;10.608;2022-07-09T09:05:30;99180.09;;;23.09;100.00
21431;BME280;10876;49.038;10.608;2022-07-09T09:07:58;99183.59;;;22.99;100.00
21431;BME280;10876;49.038;10.608;2022-07-09T09:10:27;99177.34;;;22.75;100.00
21431;BME280;10876;49.038;10.608;2022-07-09T09:12:58;99169.84;;;22.19;100.00
21431;BME280;10876;49.038;10.608;2022-07-09T09:15:29;99170.00;;;22.30;100.00
21431;BME280;10876;49.038;10.608;2022-07-09T09:17:57;99176.63;;;22.52;100.00
21431;BME280;10876;49.038;10.608;2022-07-09T09:20:24;99158.75;;;22.56;100.00
21431;BME280;10876;49.038;10.608;2022-07-09T09:22:53;99165.38;;;22.44;100.00
21431;BME280;10876;49.038;10.608;2022-07-09T09:25:26;99163.69;;;22.36;100.00
21431;BME280;10876;49.038;10.608;2022-07-09T09:27:54;99168.00;;;22.30;100.00
21431;BME280;10876;49.038;10.608;2022-07-09T09:30:22;99170.56;;;22.16;100.00
21431;BME280;10876;49.038;10.608;2022-07-09T09:32:57;99161.41;;;22.15;100.00
21431;BME280;10876;49.038;10.608;2022-07-09T09:35:26;99168.00;;;22.03;100.00
21431;BME280;10876;49.038;10.608;2022-07-09T09:37:53;99157.94;;;21.95;100.00
21431;BME280;10876;49.038;10.608;2022-07-09T09:40:21;99165.22;;;22.03;100.00
21431;BME280;10876;49.038;10.608;2022-07-09T09:42:50;99165.69;;;21.82;100.00
21431;BME280;10876;49.038;10.608;2022-07-09T09:45:19;99164.25;;;21.92;100.00
21431;BME280;10876;49.038;10.608;2022-07-09T09:47:50;99166.41;;;21.76;100.00
21431;BME280;10876;49.038;10.608;2022-07-09T09:50:24;99149.16;;;21.97;100.00
21431;BME280;10876;49.038;10.608;2022-07-09T09:53:01;99153.69;;;21.78;100.00
21431;BME280;10876;49.038;10.608;2022-07-09T09:55:40;99159.13;;;21.71;100.00
21431;BME280;10876;49.038;10.608;2022-07-09T09:58:27;99166.72;;;21.71;100.00
21431;BME280;10876;49.038;10.608;2022-07-09T10:01:06;99150.41;;;21.73;100.00
21431;BME280;10876;49.038;10.608;2022-07-09T10:03:38;99157.81;;;21.88;100.00
21431;BME280;10876;49.038;10.608;2022-07-09T10:09:22;99154.69;;;21.93;100.00
21431;BME280;10876;49.038;10.608;2022-07-09T10:11:51;99155.53;;;21.97;100.00
21431;BME280;10876;49.038;10.608;2022-07-09T10:14:31;99155.75;;;22.12;100.00
21431;BME280;10876;49.038;10.608;2022-07-09T10:17:13;99162.50;;;22.11;100.00
21431;BME280;10876;49.038;10.608;2022-07-09T10:19:56;99158.13;;;21.83;100.00
21431;BME280;10876;49.038;10.608;2022-07-09T10:22:43;99160.50;;;21.81;100.00
21431;BME280;10876;49.038;10.608;2022-07-09T10:28:17;99156.31;;;21.68;100.00
21431;BME280;10876;49.038;10.608;2022-07-09T10:30:55;99148.28;;;21.89;100.00
21431;BME280;10876;49.038;10.608;2022-07-09T10:33:37;99165.06;;;21.93;100.00
21431;BME280;10876;49.038;10.608;2022-07-09T10:36:14;99172.44;;;22.08;100.00
21431;BME280;10876;49.038;10.608;2022-07-09T10:38:53;99167.56;;;22.28;100.00
21431;BME280;10876;49.038;10.608;2022-07-09T10:41:21;99164.78;;;22.28;100.00
21431;BME280;10876;49.038;10.608;2022-07-09T10:43:50;99163.06;;;22.20;100.00
21431;BME280;10876;49.038;10.608;2022-07-09T10:46:18;99153.38;;;22.14;100.00
21431;BME280;10876;49.038;10.608;2022-07-09T10:48:46;99157.66;;;22.04;100.00
21431;BME280;10876;49.038;10.608;2022-07-09T10:51:17;99169.50;;;22.24;100.00
21431;BME280;10876;49.038;10.608;2022-07-09T10:53:45;99164.78;;;22.28;100.00
21431;BME280;10876;49.038;10.608;2022-07-09T10:56:15;99171.97;;;22.29;100.00
21431;BME280;10876;49.038;10.608;2022-07-09T10:58:45;99162.78;;;22.29;100.00
21431;BME280;10876;49.038;10.608;2022-07-09T11:01:20;99160.16;;;22.43;100.00
21431;BME280;10876;49.038;10.608;2022-07-09T11:03:51;99159.63;;;22.30;100.00
21431;BME280;10876;49.038;10.608;2022-07-09T11:06:19;99151.56;;;22.25;100.00
21431;BME280;10876;49.038;10.608;2022-07-09T11:08:46;99152.22;;;22.45;100.00
21431;BME280;10876;49.038;10.608;2022-07-09T11:11:20;99155.59;;;22.58;100.00
21431;BME280;10876;49.038;10.608;2022-07-09T11:13:49;99148.97;;;22.73;100.00
21431;BME280;10876;49.038;10.608;2022-07-09T11:16:22;99145.22;;;23.36;100.00
21431;BME280;10876;49.038;10.608;2022-07-09T11:18:49;99143.03;;;24.26;100.00
21431;BME280;10876;49.038;10.608;2022-07-09T11:21:21;99139.66;;;24.68;100.00
21431;BME280;10876;49.038;10.608;2022-07-09T11:23:48;99148.41;;;24.53;100.00
21431;BME280;10876;49.038;10.608;2022-07-09T11:26:15;99141.88;;;24.31;100.00
21431;BME280;10876;49.038;10.608;2022-07-09T11:28:44;99131.25;;;23.92;100.00
21431;BME280;10876;49.038;10.608;2022-07-09T11:31:11;99130.00;;;23.30;100.00
21431;BME280;10876;49.038;10.608;2022-07-09T11:33:39;99129.59;;;22.91;100.00
21431;BME280;10876;49.038;10.608;2022-07-09T11:36:23;99134.25;;;22.76;100.00
21431;BME280;10876;49.038;10.608;2022-07-09T11:38:52;99135.28;;;22.61;100.00
21431;BME280;10876;49.038;10.608;2022-07-09T11:41:19;99126.00;;;22.53;100.00
21431;BME280;10876;49.038;10.608;2022-07-09T11:43:47;99133.25;;;22.58;100.00
21431;BME280;10876;49.038;10.608;2022-07-09T11:46:16;99122.91;;;22.62;100.00
21431;BME280;10876;49.038;10.608;2022-07-09T11:48:50;99122.06;;;22.58;100.00
21431;BME280;10876;49.038;10.608;2022-07-09T11:51:26;99130.94;;;22.67;100.00
21431;BME280;10876;49.038;10.608;2022-07-09T11:53:53;99135.44;;;22.75;100.00
21431;BME280;10876;49.038;10.608;2022-07-09T11:56:20;99129.56;;;22.87;100.00
21431;BME280;10876;49.038;10.608;2022-07-09T11:58:49;99133.63;;;22.93;100.00
21431;BME280;10876;49.038;10.608;2022-07-09T12:01:15;99140.16;;;23.05;100.00
21431;BME280;10876;49.038;10.608;2022-07-09T12:03:47;99132.13;;;23.03;100.00
21431;BME280;10876;49.038;10.608;2022-07-09T12:06:16;99128.19;;;23.08;100.00
21431;BME280;10876;49.038;10.608;2022-07-09T12:08:43;99128.38;;;22.88;100.00
21431;BME280;10876;49.038;10.608;2022-07-09T12:11:09;99121.19;;;22.87;100.00
21431;BME280;10876;49.038;10.608;2022-07-09T12:13:36;99120.09;;;22.96;100.00
21431;BME280;10876;49.038;10.608;2022-07-09T12:16:04;99115.25;;;22.92;100.00
21431;BME280;10876;49.038;10.608;2022-07-09T12:18:31;99112.97;;;23.02;100.00
21431;BME280;10876;49.038;10.608;2022-07-09T12:20:57;99123.22;;;22.90;100.00
21431;BME280;10876;49.038;10.608;2022-07-09T12:23:26;99124.66;;;22.77;100.00
21431;BME280;10876;49.038;10.608;2022-07-09T12:25:53;99122.06;;;22.58;100.00
21431;BME280;10876;49.038;10.608;2022-07-09T12:28:19;99117.66;;;22.57;100.00
21431;BME280;10876;49.038;10.608;2022-07-09T12:30:46;99105.38;;;22.65;100.00
21431;BME280;10876;49.038;10.608;2022-07-09T12:33:13;99110.97;;;22.65;100.00
21431;BME280;10876;49.038;10.608;2022-07-09T12:35:40;99110.94;;;22.61;100.00
21431;BME280;10876;49.038;10.608;2022-07-09T12:38:06;99093.38;;;22.61;100.00
21431;BME280;10876;49.038;10.608;2022-07-09T12:40:34;99097.78;;;22.62;100.00
21431;BME280;10876;49.038;10.608;2022-07-09T12:43:01;99089.41;;;22.62;100.00
21431;BME280;10876;49.038;10.608;2022-07-09T12:45:28;99083.88;;;22.69;100.00
21431;BME280;10876;49.038;10.608;2022-07-09T12:47:54;99073.19;;;23.19;100.00
21431;BME280;10876;49.038;10.608;2022-07-09T12:50:21;99082.25;;;23.57;100.00
21431;BME280;10876;49.038;10.608;2022-07-09T12:52:48;99080.66;;;23.56;100.00
21431;BME280;10876;49.038;10.608;2022-07-09T12:55:15;99075.69;;;23.31;100.00
21431;BME280;10876;49.038;10.608;2022-07-09T12:57:43;99075.53;;;23.10;100.00
21431;BME280;10876;49.038;10.608;2022-07-09T13:00:11;99074.75;;;23.13;100.00
21431;BME280;10876;49.038;10.608;2022-07-09T13:02:39;99075.91;;;23.12;100.00
21431;BME280;10876;49.038;10.608;2022-07-09T13:05:06;99068.06;;;23.28;100.00
21431;BME280;10876;49.038;10.608;2022-07-09T13:07:34;99073.97;;;23.16;100.00
21431;BME280;10876;49.038;10.608;2022-07-09T13:10:01;99073.88;;;23.05;100.00
21431;BME280;10876;49.038;10.608;2022-07-09T13:12:28;99076.19;;;22.96;100.00
21431;BME280;10876;49.038;10.608;2022-07-09T13:14:56;99078.78;;;23.19;100.00
21431;BME280;10876;49.038;10.608;2022-07-09T13:17:25;99069.38;;;23.45;100.00
21431;BME280;10876;49.038;10.608;2022-07-09T13:19:52;99059.22;;;23.74;100.00
21431;BME280;10876;49.038;10.608;2022-07-09T13:22:18;99063.28;;;23.88;100.00
21431;BME280;10876;49.038;10.608;2022-07-09T13:24:45;99057.78;;;24.09;100.00
21431;BME280;10876;49.038;10.608;2022-07-09T13:27:12;99062.91;;;23.93;100.00
21431;BME280;10876;49.038;10.608;2022-07-09T13:29:39;99056.84;;;23.76;100.00
21431;BME280;10876;49.038;10.608;2022-07-09T13:32:08;99043.25;;;23.78;100.00
21431;BME280;10876;49.038;10.608;2022-07-09T13:34:35;99041.50;;;23.56;100.00
21431;BME280;10876;49.038;10.608;2022-07-09T13:37:02;99046.53;;;23.32;100.00
21431;BME280;10876;49.038;10.608;2022-07-09T13:39:29;99042.91;;;23.28;100.00
21431;BME280;10876;49.038;10.608;2022-07-09T13:41:56;99047.81;;;23.42;100.00
21431;BME280;10876;49.038;10.608;2022-07-09T13:44:23;99043.88;;;23.57;100.00
21431;BME280;10876;49.038;10.608;2022-07-09T13:46:50;99049.56;;;23.68;100.00
21431;BME280;10876;49.038;10.608;2022-07-09T13:49:19;99048.69;;;23.57;100.00
21431;BME280;10876;49.038;10.608;2022-07-09T13:51:46;99045.44;;;23.48;100.00
21431;BME280;10876;49.038;10.608;2022-07-09T13:54:13;99042.91;;;23.28;100.00
21431;BME280;10876;49.038;10.608;2022-07-09T13:56:39;99043.69;;;23.25;100.00
21431;BME280;10876;49.038;10.608;2022-07-09T13:59:06;99041.94;;;23.06;100.00
21431;BME280;10876;49.038;10.608;2022-07-09T14:01:33;99044.72;;;23.06;100.00
21431;BME280;10876;49.038;10.608;2022-07-09T14:03:59;99055.88;;;23.03;100.00
21431;BME280;10876;49.038;10.608;2022-07-09T14:06:27;99046.25;;;22.97;100.00
21431;BME280;10876;49.038;10.608;2022-07-09T14:08:55;99046.69;;;22.99;100.00
21431;BME280;10876;49.038;10.608;2022-07-09T14:11:22;99040.97;;;22.91;100.00
21431;BME280;10876;49.038;10.608;2022-07-09T14:13:48;99036.94;;;22.85;100.00
21431;BME280;10876;49.038;10.608;2022-07-09T14:16:18;99042.50;;;22.82;100.00
21431;BME280;10876;49.038;10.608;2022-07-09T14:18:44;99050.44;;;22.76;100.00
21431;BME280;10876;49.038;10.608;2022-07-09T14:21:11;99044.28;;;22.60;100.00
21431;BME280;10876;49.038;10.608;2022-07-09T14:23:40;99036.53;;;22.42;100.00
21431;BME280;10876;49.038;10.608;2022-07-09T14:26:07;99035.69;;;22.38;100.00
21431;BME280;10876;49.038;10.608;2022-07-09T14:28:33;99030.34;;;22.26;100.00
21431;BME280;10876;49.038;10.608;2022-07-09T14:31:00;99016.41;;;22.26;100.00
21431;BME280;10876;49.038;10.608;2022-07-09T14:33:27;99019.63;;;22.28;100.00
21431;BME280;10876;49.038;10.608;2022-07-09T14:35:53;99025.97;;;22.25;100.00
21431;BME280;10876;49.038;10.608;2022-07-09T14:38:20;99030.94;;;22.42;100.00
21431;BME280;10876;49.038;10.608;2022-07-09T14:40:48;99027.88;;;22.55;100.00
21431;BME280;10876;49.038;10.608;2022-07-09T14:43:15;99020.81;;;22.68;100.00
21431;BME280;10876;49.038;10.608;2022-07-09T14:45:42;99026.63;;;22.89;100.00
21431;BME280;10876;49.038;10.608;2022-07-09T14:48:09;99018.06;;;23.16;100.00
21431;BME280;10876;49.038;10.608;2022-07-09T14:50:36;99020.09;;;23.19;100.00
21431;BME280;10876;49.038;10.608;2022-07-09T14:53:02;99013.34;;;23.27;100.00
21431;BME280;10876;49.038;10.608;2022-07-09T14:55:31;99017.25;;;23.15;100.00
21431;BME280;10876;49.038;10.608;2022-07-09T14:58:02;99014.75;;;23.00;100.00
21431;BME280;10876;49.038;10.608;2022-07-09T15:00:29;99006.59;;;22.84;100.00
21431;BME280;10876;49.038;10.608;2022-07-09T15:02:55;99000.94;;;22.73;100.00
21431;BME280;10876;49.038;10.608;2022-07-09T15:05:23;99009.31;;;22.77;100.00
21431;BME280;10876;49.038;10.608;2022-07-09T15:07:49;98997.28;;;22.69;100.00
21431;BME280;10876;49.038;10.608;2022-07-09T15:10:16;98998.47;;;22.68;100.00
21431;BME280;10876;49.038;10.608;2022-07-09T15:12:43;99008.06;;;22.67;100.00
21431;BME280;10876;49.038;10.608;2022-07-09T15:15:11;99001.28;;;22.68;100.00
21431;BME280;10876;49.038;10.608;2022-07-09T15:17:38;98994.44;;;22.62;100.00
21431;BME280;10876;49.038;10.608;2022-07-09T15:20:05;98994.88;;;22.64;100.00
21431;BME280;10876;49.038;10.608;2022-07-09T15:22:32;98994.09;;;22.67;100.00
21431;BME280;10876;49.038;10.608;2022-07-09T15:24:59;98986.56;;;22.75;100.00
21431;BME280;10876;49.038;10.608;2022-07-09T15:27:29;98987.91;;;22.91;100.00
21431;BME280;10876;49.038;10.608;2022-07-09T15:29:57;98969.34;;;23.17;100.00
21431;BME280;10876;49.038;10.608;2022-07-09T15:32:25;98981.44;;;23.35;100.00
21431;BME280;10876;49.038;10.608;2022-07-09T15:34:52;98968.72;;;23.45;100.00
21431;BME280;10876;49.038;10.608;2022-07-09T15:37:18;98969.88;;;23.41;100.00
21431;BME280;10876;49.038;10.608;2022-07-09T15:39:45;98972.28;;;23.38;100.00
21431;BME280;10876;49.038;10.608;2022-07-09T15:42:12;98963.06;;;23.34;100.00
21431;BME280;10876;49.038;10.608;2022-07-09T15:44:39;98964.34;;;23.51;100.00
21431;BME280;10876;49.038;10.608;2022-07-09T15:47:05;98960.72;;;23.44;100.00
21431;BME280;10876;49.038;10.608;2022-07-09T15:49:33;98966.69;;;23.38;100.00
21431;BME280;10876;49.038;10.608;2022-07-09T15:52:02;98957.56;;;23.52;100.00
21431;BME280;10876;49.038;10.608;2022-07-09T15:54:29;98952.84;;;23.67;100.00
21431;BME280;10876;49.038;10.608;2022-07-09T15:56:56;98954.56;;;23.90;100.00
21431;BME280;10876;49.038;10.608;2022-07-09T15:59:22;98949.72;;;23.76;100.00
21431;BME280;10876;49.038;10.608;2022-07-09T16:01:50;98942.13;;;23.83;100.00
21431;BME280;10876;49.038;10.608;2022-07-09T16:04:16;98941.00;;;23.99;100.00
21431;BME280;10876;49.038;10.608;2022-07-09T16:06:45;98938.56;;;23.87;100.00
21431;BME280;10876;49.038;10.608;2022-07-09T16:09:11;98936.09;;;23.74;100.00
21431;BME280;10876;49.038;10.608;2022-07-09T16:11:38;98935.22;;;23.52;100.00
21431;BME280;10876;49.038;10.608;2022-07-09T16:14:22;98932.69;;;23.29;100.00
21431;BME280;10876;49.038;10.608;2022-07-09T16:16:49;98937.38;;;23.11;100.00
21431;BME280;10876;49.038;10.608;2022-07-09T16:19:16;98938.13;;;23.04;100.00
21431;BME280;10876;49.038;10.608;2022-07-09T16:21:42;98926.53;;;23.02;100.00
21431;BME280;10876;49.038;10.608;2022-07-09T16:24:11;98928.53;;;23.02;100.00
21431;BME280;10876;49.038;10.608;2022-07-09T16:26:37;98920.50;;;22.97;100.00
21431;BME280;10876;49.038;10.608;2022-07-09T16:29:04;98930.09;;;22.96;100.00
21431;BME280;10876;49.038;10.608;2022-07-09T16:31:31;98924.53;;;23.03;100.00
21431;BME280;10876;49.038;10.608;2022-07-09T16:33:58;98932.47;;;22.97;100.00
21431;BME280;10876;49.038;10.608;2022-07-09T16:36:25;98920.69;;;23.25;100.00
21431;BME280;10876;49.038;10.608;2022-07-09T16:38:51;98927.91;;;23.30;100.00
21431;BME280;10876;49.038;10.608;2022-07-09T16:41:19;98913.06;;;23.15;100.00
21431;BME280;10876;49.038;10.608;2022-07-09T16:43:46;98913.34;;;23.03;100.00
21431;BME280;10876;49.038;10.608;2022-07-09T16:46:13;98914.63;;;23.12;100.00
21431;BME280;10876;49.038;10.608;2022-07-09T16:51:27;98908.19;;;23.08;100.00
21431;BME280;10876;49.038;10.608;2022-07-09T16:53:54;98905.47;;;23.19;100.00
21431;BME280;10876;49.038;10.608;2022-07-09T16:56:22;98910.69;;;23.24;100.00
21431;BME280;10876;49.038;10.608;2022-07-09T16:58:49;98899.88;;;23.15;100.00
21431;BME280;10876;49.038;10.608;2022-07-09T17:01:16;98899.88;;;23.19;100.00
21431;BME280;10876;49.038;10.608;2022-07-09T17:03:45;98892.31;;;23.23;100.00
21431;BME280;10876;49.038;10.608;2022-07-09T17:06:12;98891.88;;;23.14;100.00
21431;BME280;10876;49.038;10.608;2022-07-09T17:08:39;98897.44;;;23.14;100.00
21431;BME280;10876;49.038;10.608;2022-07-09T17:11:07;98887.47;;;23.13;100.00
21431;BME280;10876;49.038;10.608;2022-07-09T17:13:35;98883.06;;;23.12;100.00
21431;BME280;10876;49.038;10.608;2022-07-09T17:16:02;98883.53;;;23.21;100.00
21431;BME280;10876;49.038;10.608;2022-07-09T17:18:29;98879.03;;;23.06;100.00
21431;BME280;10876;49.038;10.608;2022-07-09T17:20:56;98880.59;;;22.96;100.00
21431;BME280;10876;49.038;10.608;2022-07-09T17:23:22;98882.91;;;22.87;100.00
21431;BME280;10876;49.038;10.608;2022-07-09T17:25:49;98876.91;;;22.85;100.00
21431;BME280;10876;49.038;10.608;2022-07-09T17:28:16;98880.47;;;22.82;100.00
21431;BME280;10876;49.038;10.608;2022-07-09T17:30:44;98874.09;;;22.81;100.00
21431;BME280;10876;49.038;10.608;2022-07-09T17:33:11;98877.25;;;22.80;100.00
21431;BME280;10876;49.038;10.608;2022-07-09T17:35:38;98880.06;;;22.83;100.00
21431;BME280;10876;49.038;10.608;2022-07-09T17:38:06;98872.84;;;22.75;100.00
21431;BME280;10876;49.038;10.608;2022-07-09T17:40:33;98871.97;;;22.64;100.00
21431;BME280;10876;49.038;10.608;2022-07-09T17:42:59;98862.75;;;22.60;100.00
21431;BME280;10876;49.038;10.608;2022-07-09T17:45:26;98863.50;;;22.49;100.00
21431;BME280;10876;49.038;10.608;2022-07-09T17:47:54;98874.69;;;22.57;100.00
21431;BME280;10876;49.038;10.608;2022-07-09T17:50:21;98867.47;;;22.48;100.00
21431;BME280;10876;49.038;10.608;2022-07-09T17:52:48;98874.59;;;22.42;100.00
21431;BME280;10876;49.038;10.608;2022-07-09T17:55:15;98872.16;;;22.37;100.00
21431;BME280;10876;49.038;10.608;2022-07-09T17:57:49;98865.78;;;22.40;100.00
21431;BME280;10876;49.038;10.608;2022-07-09T18:00:18;98867.31;;;22.31;100.00
21431;BME280;10876;49.038;10.608;2022-07-09T18:02:45;98866.53;;;22.30;100.00
21431;BME280;10876;49.038;10.608;2022-07-09T18:05:15;98872.09;;;22.26;100.00
21431;BME280;10876;49.038;10.608;2022-07-09T18:07:42;98861.75;;;22.34;100.00
21431;BME280;10876;49.038;10.608;2022-07-09T18:10:09;98869.31;;;22.30;100.00
21431;BME280;10876;49.038;10.608;2022-07-09T18:12:36;98865.28;;;22.24;100.00
21431;BME280;10876;49.038;10.608;2022-07-09T18:15:04;98860.88;;;22.23;100.00
21431;BME280;10876;49.038;10.608;2022-07-09T18:17:35;98861.28;;;22.25;100.00
21431;BME280;10876;49.038;10.608;2022-07-09T18:20:03;98865.63;;;22.19;100.00
21431;BME280;10876;49.038;10.608;2022-07-09T18:22:32;98861.97;;;22.15;100.00
21431;BME280;10876;49.038;10.608;2022-07-09T18:24:59;98867.16;;;22.13;100.00
21431;BME280;10876;49.038;10.608;2022-07-09T18:27:26;98872.72;;;22.13;100.00
21431;BME280;10876;49.038;10.608;2022-07-09T18:29:53;98860.72;;;22.09;100.00
21431;BME280;10876;49.038;10.608;2022-07-09T18:32:20;98862.28;;;22.06;100.00
21431;BME280;10876;49.038;10.608;2022-07-09T18:34:46;98862.25;;;22.02;100.00
21431;BME280;10876;49.038;10.608;2022-07-09T18:37:13;98856.25;;;22.00;100.00
21431;BME280;10876;49.038;10.608;2022-07-09T18:39:42;98855.06;;;21.98;100.00
21431;BME280;10876;49.038;10.608;2022-07-09T18:42:08;98853.03;;;21.95;100.00
21431;BME280;10876;49.038;10.608;2022-07-09T18:44:36;98849.41;;;21.94;100.00
21431;BME280;10876;49.038;10.608;2022-07-09T18:47:04;98850.66;;;22.00;100.00
21431;BME280;10876;49.038;10.608;2022-07-09T18:49:35;98853.06;;;21.98;100.00
21431;BME280;10876;49.038;10.608;2022-07-09T18:52:02;98854.09;;;21.83;100.00
21431;BME280;10876;49.038;10.608;2022-07-09T18:54:29;98850.81;;;21.74;100.00
21431;BME280;10876;49.038;10.608;2022-07-09T18:56:58;98850.31;;;21.65;100.00
21431;BME280;10876;49.038;10.608;2022-07-09T18:59:25;98846.72;;;21.61;100.00
21431;BME280;10876;49.038;10.608;2022-07-09T19:01:52;98846.19;;;21.51;100.00
21431;BME280;10876;49.038;10.608;2022-07-09T19:04:22;98848.16;;;21.47;100.00
21431;BME280;10876;49.038;10.608;2022-07-09T19:06:49;98855.25;;;21.41;100.00
21431;BME280;10876;49.038;10.608;2022-07-09T19:09:16;98853.63;;;21.40;100.00
21431;BME280;10876;49.038;10.608;2022-07-09T19:14:11;98859.44;;;21.28;100.00
21431;BME280;10876;49.038;10.608;2022-07-09T19:16:37;98856.97;;;21.23;100.00
21431;BME280;10876;49.038;10.608;2022-07-09T19:19:04;98854.19;;;21.23;100.00
21431;BME280;10876;49.038;10.608;2022-07-09T19:21:31;98859.34;;;21.21;100.00
21431;BME280;10876;49.038;10.608;2022-07-09T19:23:58;98860.00;;;21.10;100.00
21431;BME280;10876;49.038;10.608;2022-07-09T19:26:25;98858.41;;;21.09;100.00
21431;BME280;10876;49.038;10.608;2022-07-09T19:28:52;98851.56;;;21.03;100.00
21431;BME280;10876;49.038;10.608;2022-07-09T19:31:20;98862.59;;;20.96;100.00
21431;BME280;10876;49.038;10.608;2022-07-09T19:34:05;98864.53;;;20.92;100.00
21431;BME280;10876;49.038;10.608;2022-07-09T19:36:34;98875.13;;;20.83;100.00
21431;BME280;10876;49.038;10.608;2022-07-09T19:39:04;98871.81;;;20.74;100.00
21431;BME280;10876;49.038;10.608;2022-07-09T19:41:33;98878.25;;;20.78;100.00
21431;BME280;10876;49.038;10.608;2022-07-09T19:44:00;98876.63;;;20.77;100.00
21431;BME280;10876;49.038;10.608;2022-07-09T19:46:31;98882.97;;;20.74;100.00
21431;BME280;10876;49.038;10.608;2022-07-09T19:48:59;98887.09;;;20.83;100.00
21431;BME280;10876;49.038;10.608;2022-07-09T19:51:25;98891.97;;;20.90;100.00
21431;BME280;10876;49.038;10.608;2022-07-09T19:53:52;98887.19;;;20.90;100.00
21431;BME280;10876;49.038;10.608;2022-07-09T19:56:20;98891.97;;;20.90;100.00
21431;BME280;10876;49.038;10.608;2022-07-09T19:58:47;98895.84;;;20.85;100.00
21431;BME280;10876;49.038;10.608;2022-07-09T20:01:14;98897.41;;;20.83;100.00
21431;BME280;10876;49.038;10.608;2022-07-09T20:03:42;98897.38;;;20.79;100.00
21431;BME280;10876;49.038;10.608;2022-07-09T20:06:11;98891.75;;;20.76;100.00
21431;BME280;10876;49.038;10.608;2022-07-09T20:08:37;98894.09;;;20.74;100.00
21431;BME280;10876;49.038;10.608;2022-07-09T20:11:05;98898.97;;;20.80;100.00
21431;BME280;10876;49.038;10.608;2022-07-09T20:13:32;98893.28;;;20.73;100.00
21431;BME280;10876;49.038;10.608;2022-07-09T20:15:58;98902.84;;;20.72;100.00
21431;BME280;10876;49.038;10.608;2022-07-09T20:18:25;98902.75;;;20.68;100.00
21431;BME280;10876;49.038;10.608;2022-07-09T20:20:57;98898.38;;;20.67;100.00
21431;BME280;10876;49.038;10.608;2022-07-09T20:23:24;98894.75;;;20.63;100.00
21431;BME280;10876;49.038;10.608;2022-07-09T20:25:50;98887.56;;;20.62;100.00
21431;BME280;10876;49.038;10.608;2022-07-09T20:28:17;98881.91;;;20.55;100.00
21431;BME280;10876;49.038;10.608;2022-07-09T20:30:44;98881.91;;;20.55;100.00
21431;BME280;10876;49.038;10.608;2022-07-09T20:33:13;98886.72;;;20.58;100.00
21431;BME280;10876;49.038;10.608;2022-07-09T20:35:40;98890.59;;;20.54;100.00
21431;BME280;10876;49.038;10.608;2022-07-09T20:38:08;98895.38;;;20.53;100.00
21431;BME280;10876;49.038;10.608;2022-07-09T20:40:35;98901.16;;;20.44;100.00
21431;BME280;10876;49.038;10.608;2022-07-09T20:43:07;98901.13;;;20.41;100.00
21431;BME280;10876;49.038;10.608;2022-07-09T20:45:36;98914.03;;;20.30;100.00
21431;BME280;10876;49.038;10.608;2022-07-09T20:48:04;98921.00;;;20.20;100.00
21431;BME280;10876;49.038;10.608;2022-07-09T20:50:31;98925.66;;;20.12;100.00
21431;BME280;10876;49.038;10.608;2022-07-09T20:52:59;98919.75;;;19.94;100.00
21431;BME280;10876;49.038;10.608;2022-07-09T20:55:30;98919.13;;;19.82;100.00
21431;BME280;10876;49.038;10.608;2022-07-09T20:57:57;98921.03;;;19.77;100.00
21431;BME280;10876;49.038;10.608;2022-07-09T21:00:24;98925.41;;;19.59;100.00
21431;BME280;10876;49.038;10.608;2022-07-09T21:02:51;98906.97;;;19.51;100.00